Time;durP1;ratioP1;P1;durP2;ratioP2;P2;SDS_P1;SDS_P2;PMS_P1;PMS_P2;Temp;Humidity;BMP_temperature;BMP_pressure;BME280_temperature;BME280_humidity;BME280_pressure;Samples;Min_cycle;Max_cycle;Signal;HPM_P1;HPM_P2
2022/06/15 00:01:29;;;;;;;0.80;0.80;;;10.60;99.90;;;;;;5137552;27;20197;-71
2022/06/15 00:03:55;;;;;;;0.50;0.50;;;10.60;99.90;;;;;;5137541;27;20194;-71
2022/06/15 00:06:25;;;;;;;0.55;0.55;;;10.50;99.90;;;;;;5137233;27;20194;-71
2022/06/15 00:08:53;;;;;;;0.63;0.63;;;10.40;99.90;;;;;;5137255;27;20190;-71
2022/06/15 00:11:28;;;;;;;0.50;0.50;;;10.40;99.90;;;;;;5136974;27;20190;-71
2022/06/15 00:13:56;;;;;;;0.50;0.50;;;10.30;99.90;;;;;;5155879;27;20190;-71
2022/06/15 00:16:23;;;;;;;0.60;0.60;;;10.30;99.90;;;;;;5155638;27;20182;-71
2022/06/15 00:18:49;;;;;;;1.30;0.82;;;10.20;99.90;;;;;;5155714;27;20664;-70
2022/06/15 00:21:16;;;;;;;0.77;0.77;;;10.20;99.90;;;;;;5155719;27;20197;-71
2022/06/15 00:23:42;;;;;;;0.50;0.50;;;10.20;99.90;;;;;;5155318;27;20648;-71
2022/06/15 00:26:08;;;;;;;0.63;0.63;;;10.20;99.90;;;;;;5136914;27;20277;-71
2022/06/15 00:28:35;;;;;;;0.50;0.50;;;10.20;99.90;;;;;;5155485;27;20612;-71
2022/06/15 00:31:01;;;;;;;0.55;0.55;;;10.20;99.90;;;;;;5155288;27;20664;-72
2022/06/15 00:33:28;;;;;;;0.50;0.50;;;10.10;99.90;;;;;;5155281;27;20186;-70
2022/06/15 00:35:58;;;;;;;0.60;0.60;;;10.10;99.90;;;;;;5136830;27;20190;-71
2022/06/15 00:38:44;;;;;;;0.95;0.85;;;10.00;99.90;;;;;;5155080;27;20227;-71
2022/06/15 00:41:19;;;;;;;0.57;0.57;;;10.00;99.90;;;;;;5155226;27;20190;-70
2022/06/15 00:43:51;;;;;;;0.93;0.70;;;9.90;99.90;;;;;;5136872;27;20652;-71
2022/06/15 00:46:31;;;;;;;0.70;0.70;;;9.90;99.90;;;;;;5155197;27;20193;-70
2022/06/15 00:49:19;;;;;;;0.50;0.50;;;9.90;99.90;;;;;;5154621;27;20190;-71
2022/06/15 00:51:49;;;;;;;1.02;0.93;;;9.90;99.90;;;;;;5154987;27;20787;-71
2022/06/15 00:54:16;;;;;;;0.80;0.80;;;9.80;99.90;;;;;;5154974;27;20498;-71
2022/06/15 00:56:42;;;;;;;0.60;0.60;;;9.80;99.90;;;;;;5154723;27;20220;-70
2022/06/15 00:59:22;;;;;;;0.60;0.60;;;9.70;99.90;;;;;;5154999;27;20194;-71
2022/06/15 01:01:48;;;;;;;0.95;0.95;;;9.70;99.90;;;;;;5136686;27;20221;-70
2022/06/15 01:04:15;;;;;;;0.50;0.50;;;9.60;99.90;;;;;;5154834;27;20619;-70
2022/06/15 01:07:18;;;;;;;0.60;0.60;;;9.60;99.90;;;;;;5136038;27;20204;-70
2022/06/15 01:09:56;;;;;;;0.60;0.60;;;9.50;99.90;;;;;;5154690;27;20715;-70
2022/06/15 01:12:44;;;;;;;0.82;0.82;;;9.50;99.90;;;;;;5154307;27;20553;-71
2022/06/15 01:15:34;;;;;;;0.60;0.60;;;9.50;99.90;;;;;;5135515;27;20198;-70
2022/06/15 01:18:27;;;;;;;0.60;0.60;;;9.50;99.90;;;;;;5154559;27;20554;-71
2022/06/15 01:21:17;;;;;;;0.50;0.50;;;9.50;99.90;;;;;;5154249;27;20194;-70
2022/06/15 01:24:18;;;;;;;0.60;0.60;;;9.50;99.90;;;;;;5153694;27;20237;-71
2022/06/15 01:26:51;;;;;;;0.50;0.50;;;9.40;99.90;;;;;;5135686;27;20600;-70
2022/06/15 01:29:16;;;;;;;0.60;0.60;;;9.40;99.90;;;;;;5154249;27;20198;-71
2022/06/15 01:31:56;;;;;;;0.60;0.60;;;9.40;99.90;;;;;;5154190;27;20190;-71
2022/06/15 01:34:50;;;;;;;0.50;0.50;;;9.40;99.90;;;;;;5135354;27;20196;-70
2022/06/15 01:38:00;;;;;;;0.63;0.63;;;9.40;99.90;;;;;;5153316;27;20198;-72
2022/06/15 01:40:33;;;;;;;0.60;0.60;;;9.40;99.90;;;;;;5139830;27;20201;-73
2022/06/15 01:43:15;;;;;;;0.50;0.50;;;9.40;99.90;;;;;;5135483;27;20428;-72
2022/06/15 01:45:42;;;;;;;0.60;0.60;;;9.40;99.90;;;;;;5153908;27;20202;-72
2022/06/15 01:48:11;;;;;;;0.55;0.55;;;9.50;99.90;;;;;;5153991;27;20222;-72
2022/06/15 01:50:49;;;;;;;0.75;0.75;;;9.40;99.90;;;;;;5134624;27;20563;-71
2022/06/15 01:53:22;;;;;;;0.70;0.70;;;9.40;99.90;;;;;;5135201;27;20551;-72
2022/06/15 01:56:07;;;;;;;0.60;0.60;;;9.40;99.90;;;;;;5135220;27;20193;-72
2022/06/15 01:58:37;;;;;;;0.50;0.50;;;9.40;99.90;;;;;;5153732;27;20190;-72
2022/06/15 02:01:20;;;;;;;0.60;0.60;;;9.40;99.90;;;;;;5151873;27;20194;-72
2022/06/15 02:03:52;;;;;;;0.98;0.98;;;9.40;99.90;;;;;;5153727;27;20194;-72
2022/06/15 02:06:24;;;;;;;0.60;0.60;;;9.30;99.90;;;;;;5135095;27;20663;-71
2022/06/15 02:09:11;;;;;;;0.63;0.63;;;9.30;99.90;;;;;;5153572;27;20186;-71
2022/06/15 02:11:40;;;;;;;0.60;0.60;;;9.40;99.90;;;;;;5153416;27;21639;-70
2022/06/15 02:14:14;;;;;;;0.60;0.60;;;9.40;99.90;;;;;;5153496;27;20680;-70
2022/06/15 02:17:05;;;;;;;0.60;0.60;;;9.40;99.90;;;;;;5153265;27;20555;-72
2022/06/15 02:19:35;;;;;;;0.70;0.70;;;9.40;99.90;;;;;;5141030;27;20746;-70
2022/06/15 02:22:06;;;;;;;0.50;0.50;;;9.40;99.90;;;;;;5134757;27;20597;-73
2022/06/15 02:24:34;;;;;;;0.60;0.60;;;9.40;99.90;;;;;;5173974;27;20186;-72
2022/06/15 02:27:01;;;;;;;0.60;0.60;;;9.40;99.90;;;;;;5174636;27;20181;-70
2022/06/15 02:29:28;;;;;;;0.50;0.50;;;9.40;99.90;;;;;;5174096;27;20212;-71
2022/06/15 02:31:55;;;;;;;0.70;0.70;;;9.40;99.90;;;;;;5155509;27;20189;-70
2022/06/15 02:34:22;;;;;;;0.50;0.50;;;9.40;99.90;;;;;;5174020;27;20188;-70
2022/06/15 02:36:47;;;;;;;0.57;0.57;;;9.40;99.90;;;;;;5156766;27;20710;-71
2022/06/15 02:39:13;;;;;;;0.70;0.70;;;9.40;99.90;;;;;;5159063;27;20228;-71
2022/06/15 02:41:39;;;;;;;0.80;0.80;;;9.40;99.90;;;;;;5169070;27;20229;-70
2022/06/15 02:44:08;;;;;;;0.50;0.50;;;9.50;99.90;;;;;;5156703;27;20198;-70
2022/06/15 02:46:40;;;;;;;0.55;0.55;;;9.50;99.90;;;;;;5155555;27;20197;-71
2022/06/15 02:49:06;;;;;;;0.60;0.60;;;9.50;99.90;;;;;;5136979;27;20198;-70
2022/06/15 02:51:46;;;;;;;0.52;0.52;;;9.40;99.90;;;;;;5137470;27;20305;-70
2022/06/15 02:54:17;;;;;;;0.50;0.50;;;9.40;99.90;;;;;;5138121;27;20193;-70
2022/06/15 02:56:44;;;;;;;0.60;0.60;;;9.40;99.90;;;;;;5136584;27;20190;-70
2022/06/15 02:59:10;;;;;;;1.25;1.00;;;9.50;99.90;;;;;;5134952;27;20687;-71
2022/06/15 03:01:36;;;;;;;0.57;0.57;;;9.60;99.90;;;;;;5143841;27;20194;-70
2022/06/15 03:04:02;;;;;;;0.60;0.60;;;9.70;99.90;;;;;;5135541;27;20561;-71
2022/06/15 03:06:28;;;;;;;0.50;0.50;;;9.80;99.90;;;;;;5154599;27;20201;-72
2022/06/15 03:08:55;;;;;;;0.60;0.60;;;9.90;99.90;;;;;;5154711;27;20254;-72
2022/06/15 03:11:25;;;;;;;0.60;0.60;;;10.00;99.90;;;;;;5153863;27;20261;-72
2022/06/15 03:13:52;;;;;;;0.70;0.70;;;10.10;99.90;;;;;;5134568;27;20238;-72
2022/06/15 03:16:18;;;;;;;0.50;0.50;;;10.20;99.90;;;;;;5152672;27;20186;-72
2022/06/15 03:18:45;;;;;;;1.13;1.02;;;10.20;99.90;;;;;;5130043;28;20190;-72
2022/06/15 03:21:11;;;;;;;0.50;0.50;;;10.30;99.90;;;;;;5132048;28;20630;-72
2022/06/15 03:23:37;;;;;;;0.93;0.80;;;10.40;99.90;;;;;;5133841;28;20248;-72
2022/06/15 03:26:04;;;;;;;0.50;0.50;;;10.40;99.90;;;;;;5135358;28;20191;-72
2022/06/15 03:28:30;;;;;;;0.63;0.63;;;10.50;99.90;;;;;;5133608;28;20198;-70
2022/06/15 03:30:56;;;;;;;0.70;0.70;;;10.50;99.90;;;;;;5115331;28;20206;-70
2022/06/15 03:33:22;;;;;;;1.20;0.85;;;10.60;99.90;;;;;;5133398;28;20705;-70
2022/06/15 03:35:48;;;;;;;0.50;0.50;;;10.70;99.90;;;;;;5115278;28;20215;-70
2022/06/15 03:38:14;;;;;;;0.60;0.60;;;10.80;99.90;;;;;;5124741;27;20198;-69
2022/06/15 03:40:42;;;;;;;0.57;0.57;;;11.00;99.90;;;;;;5154141;27;20193;-70
2022/06/15 03:43:08;;;;;;;0.50;0.50;;;11.10;99.90;;;;;;5154558;27;20190;-71
2022/06/15 03:45:34;;;;;;;0.68;0.68;;;11.10;99.90;;;;;;5154000;27;20189;-69
2022/06/15 03:48:01;;;;;;;0.57;0.57;;;11.30;99.90;;;;;;5152630;27;20194;-69
2022/06/15 03:50:29;;;;;;;0.50;0.50;;;11.20;99.90;;;;;;5133294;27;20735;-70
2022/06/15 03:52:55;;;;;;;0.47;0.47;;;11.30;99.90;;;;;;5113482;28;20206;-72
2022/06/15 03:55:21;;;;;;;0.47;0.47;;;11.30;99.90;;;;;;5131747;28;20191;-69
2022/06/15 03:57:47;;;;;;;0.80;0.80;;;11.30;99.90;;;;;;5133959;28;20277;-71
2022/06/15 04:00:16;;;;;;;0.63;0.60;;;11.40;99.90;;;;;;5137383;27;20624;-70
2022/06/15 04:02:42;;;;;;;0.65;0.65;;;11.40;99.90;;;;;;5139083;27;20195;-71
2022/06/15 04:05:14;;;;;;;0.43;0.43;;;11.50;99.90;;;;;;5140130;27;20554;-69
2022/06/15 04:10:24;;;;;;;0.50;0.50;;;11.60;99.90;;;;;;5143140;27;20205;-71
2022/06/15 04:12:50;;;;;;;0.63;0.63;;;11.60;99.90;;;;;;5150526;27;20191;-71
2022/06/15 04:15:16;;;;;;;0.50;0.50;;;11.70;99.90;;;;;;5137699;27;20242;-71
2022/06/15 04:17:44;;;;;;;0.60;0.60;;;11.70;99.90;;;;;;5163468;27;20659;-70
2022/06/15 04:23:09;;;;;;;0.60;0.60;;;11.70;99.90;;;;;;5156809;27;20560;-71
2022/06/15 04:25:42;;;;;;;0.82;0.82;;;11.70;99.90;;;;;;5137513;27;20300;-71
2022/06/15 04:28:10;;;;;;;0.70;0.70;;;11.70;99.90;;;;;;5156042;27;20186;-72
2022/06/15 04:30:36;;;;;;;0.50;0.50;;;11.60;99.90;;;;;;5155787;27;20288;-71
2022/06/15 04:33:02;;;;;;;0.75;0.75;;;11.70;99.90;;;;;;5137249;27;20277;-71
2022/06/15 04:35:28;;;;;;;0.63;0.63;;;11.70;99.90;;;;;;5155705;27;20331;-71
2022/06/15 04:37:54;;;;;;;0.82;0.82;;;11.80;99.90;;;;;;5155522;27;20194;-71
2022/06/15 04:40:20;;;;;;;0.60;0.60;;;11.90;99.90;;;;;;5136692;27;20199;-72
2022/06/15 04:42:46;;;;;;;0.80;0.80;;;12.00;99.90;;;;;;5155468;27;20607;-73
2022/06/15 04:45:14;;;;;;;1.33;0.80;;;12.20;99.90;;;;;;5155516;27;20213;-69
2022/06/15 04:47:40;;;;;;;0.47;0.47;;;12.50;99.90;;;;;;5136625;27;20198;-69
2022/06/15 04:50:13;;;;;;;0.60;0.60;;;12.70;99.90;;;;;;5139100;27;20310;-69
2022/06/15 04:52:43;;;;;;;1.30;1.20;;;13.00;99.90;;;;;;5134159;27;20243;-70
2022/06/15 04:55:12;;;;;;;0.98;0.98;;;13.20;99.90;;;;;;5134659;27;20587;-71
2022/06/15 04:57:38;;;;;;;0.50;0.50;;;13.40;99.90;;;;;;5134413;27;20197;-70
2022/06/15 05:00:08;;;;;;;0.50;0.50;;;13.50;99.90;;;;;;5134341;27;20191;-70
2022/06/15 05:02:34;;;;;;;3.80;0.82;;;13.60;99.90;;;;;;5134029;27;20627;-70
2022/06/15 05:05:00;;;;;;;1.08;0.77;;;13.80;99.90;;;;;;5134270;27;20534;-71
2022/06/15 05:07:26;;;;;;;0.40;0.40;;;13.90;99.90;;;;;;5133987;27;20198;-71
2022/06/15 05:09:51;;;;;;;0.40;0.40;;;14.00;99.90;;;;;;5134056;27;20211;-70
2022/06/15 05:12:18;;;;;;;0.47;0.47;;;14.10;99.90;;;;;;5141824;27;20225;-70
2022/06/15 05:14:48;;;;;;;0.30;0.30;;;14.20;99.90;;;;;;5177000;27;20232;-74
2022/06/15 05:17:21;;;;;;;0.32;0.32;;;14.60;99.90;;;;;;5176612;27;20219;-74
2022/06/15 05:19:47;;;;;;;0.45;0.45;;;15.60;99.90;;;;;;5175854;27;20196;-72
2022/06/15 05:22:14;;;;;;;0.43;0.43;;;16.50;99.90;;;;;;5175588;27;20198;-70
2022/06/15 05:24:40;;;;;;;0.47;0.47;;;17.30;99.90;;;;;;5156736;27;20250;-73
2022/06/15 05:27:06;;;;;;;0.30;0.30;;;17.90;99.90;;;;;;5156678;27;20745;-72
2022/06/15 05:29:35;;;;;;;0.35;0.35;;;18.30;99.90;;;;;;5174913;27;20193;-73
2022/06/15 05:32:02;;;;;;;0.20;0.20;;;18.70;99.90;;;;;;5136132;27;20190;-75
2022/06/15 05:34:28;;;;;;;0.30;0.30;;;18.60;99.90;;;;;;5154118;27;20201;-74
2022/06/15 05:36:54;;;;;;;0.30;0.30;;;18.50;99.90;;;;;;5136089;27;20201;-73
2022/06/15 05:39:20;;;;;;;0.25;0.25;;;18.60;99.90;;;;;;5135559;27;20194;-74
2022/06/15 05:41:49;;;;;;;0.20;0.20;;;18.90;99.90;;;;;;5154457;27;20716;-74
2022/06/15 05:44:28;;;;;;;0.30;0.30;;;19.20;99.90;;;;;;5154337;27;20281;-73
2022/06/15 05:46:59;;;;;;;0.15;0.15;;;19.40;99.90;;;;;;5154208;27;20192;-72
2022/06/15 05:49:25;;;;;;;0.52;0.50;;;19.60;99.90;;;;;;5143645;27;20191;-73
2022/06/15 05:51:50;;;;;;;0.28;0.28;;;19.90;99.90;;;;;;5133129;27;20226;-73
2022/06/15 05:54:16;;;;;;;0.20;0.20;;;19.70;99.90;;;;;;5133168;27;20544;-73
2022/06/15 05:56:43;;;;;;;0.30;0.30;;;19.80;99.90;;;;;;5133136;27;20236;-74
2022/06/15 05:59:08;;;;;;;0.20;0.20;;;20.20;99.90;;;;;;5133225;27;20270;-75
2022/06/15 06:01:37;;;;;;;0.20;0.20;;;20.40;99.90;;;;;;5132949;27;20295;-74
2022/06/15 06:04:04;;;;;;;0.20;0.20;;;20.50;99.90;;;;;;5133146;27;20190;-75
2022/06/15 06:06:31;;;;;;;0.30;0.30;;;20.60;99.90;;;;;;5114394;27;20202;-75
2022/06/15 06:08:58;;;;;;;0.20;0.20;;;20.70;99.90;;;;;;5166218;27;20276;-74
2022/06/15 06:11:26;;;;;;;0.40;0.30;;;20.40;99.90;;;;;;5174323;27;20208;-75
2022/06/15 06:13:52;;;;;;;0.40;0.40;;;20.10;99.90;;;;;;5155876;27;20193;-74
2022/06/15 06:16:18;;;;;;;0.20;0.20;;;20.00;99.90;;;;;;5174410;27;20205;-74
2022/06/15 06:18:44;;;;;;;2.08;1.25;;;19.70;99.90;;;;;;5174757;27;20193;-73
2022/06/15 06:21:10;;;;;;;0.55;0.40;;;19.30;99.90;;;;;;5174420;27;20595;-73
2022/06/15 06:23:37;;;;;;;0.30;0.30;;;19.00;99.90;;;;;;5173669;27;20205;-74
2022/06/15 06:26:03;;;;;;;0.30;0.30;;;19.10;99.90;;;;;;5153102;27;20189;-73
2022/06/15 06:28:31;;;;;;;0.20;0.20;;;19.00;99.90;;;;;;5153151;27;20198;-74
2022/06/15 06:30:59;;;;;;;0.28;0.28;;;18.90;99.90;;;;;;5153203;27;20214;-73
2022/06/15 06:33:29;;;;;;;0.40;0.30;;;19.10;99.90;;;;;;5153125;27;20262;-74
2022/06/15 06:35:57;;;;;;;0.30;0.30;;;19.30;99.90;;;;;;5134688;27;20190;-74
2022/06/15 06:38:24;;;;;;;0.30;0.30;;;19.50;99.90;;;;;;5153014;27;20186;-73
2022/06/15 06:40:54;;;;;;;0.20;0.20;;;19.80;99.90;;;;;;5153189;27;20269;-73
2022/06/15 06:43:21;;;;;;;0.30;0.30;;;20.20;99.90;;;;;;5153001;27;20604;-74
2022/06/15 06:45:47;;;;;;;1.13;0.60;;;20.60;99.90;;;;;;5134720;27;20587;-75
2022/06/15 06:48:13;;;;;;;0.73;0.45;;;20.70;99.90;;;;;;5134551;27;20205;-73
2022/06/15 06:50:40;;;;;;;0.63;0.40;;;20.50;99.90;;;;;;5131947;27;20297;-74
2022/06/15 06:53:07;;;;;;;0.28;0.28;;;20.60;99.90;;;;;;5113859;28;20209;-74
2022/06/15 06:55:33;;;;;;;0.30;0.30;;;20.60;99.90;;;;;;5132122;28;20191;-73
2022/06/15 06:58:00;;;;;;;0.30;0.30;;;20.80;99.90;;;;;;5132424;28;20206;-74
2022/06/15 07:00:28;;;;;;;0.20;0.20;;;21.20;99.90;;;;;;5132070;28;20212;-74
2022/06/15 07:02:53;;;;;;;0.20;0.20;;;21.60;99.90;;;;;;5132421;28;20194;-73
2022/06/15 07:05:19;;;;;;;0.30;0.30;;;21.90;99.90;;;;;;5148644;27;20190;-73
2022/06/15 07:07:46;;;;;;;0.82;0.70;;;22.10;99.90;;;;;;5173817;27;20197;-74
2022/06/15 07:10:12;;;;;;;0.70;0.30;;;21.90;99.90;;;;;;5173683;27;20201;-73
2022/06/15 07:12:42;;;;;;;0.35;0.35;;;22.20;99.90;;;;;;5154788;27;20588;-72
2022/06/15 07:15:09;;;;;;;0.52;0.40;;;22.60;99.90;;;;;;5155001;27;20192;-72
2022/06/15 07:17:35;;;;;;;0.20;0.20;;;22.60;99.90;;;;;;5173352;27;20272;-73
2022/06/15 07:20:01;;;;;;;0.20;0.20;;;22.90;99.90;;;;;;5173703;27;20280;-72
2022/06/15 07:22:27;;;;;;;0.10;0.10;;;23.00;99.90;;;;;;5169411;27;20209;-73
2022/06/15 07:24:52;;;;;;;0.30;0.25;;;23.10;99.90;;;;;;5152752;27;20186;-73
2022/06/15 07:27:19;;;;;;;0.32;0.32;;;22.90;99.90;;;;;;5133891;27;20194;-73
2022/06/15 07:29:46;;;;;;;0.30;0.30;;;22.50;99.90;;;;;;5134144;27;20612;-72
2022/06/15 07:32:13;;;;;;;0.40;0.40;;;22.50;99.90;;;;;;5152485;27;20194;-72
2022/06/15 07:34:40;;;;;;;0.25;0.25;;;22.60;99.90;;;;;;5135578;27;20391;-72
2022/06/15 07:37:07;;;;;;;0.25;0.25;;;22.90;99.90;;;;;;5156754;27;20186;-73
2022/06/15 07:39:33;;;;;;;0.20;0.20;;;23.40;99.90;;;;;;5156480;27;20182;-73
2022/06/15 07:41:59;;;;;;;0.20;0.20;;;23.40;99.90;;;;;;5156590;27;20521;-73
2022/06/15 07:44:27;;;;;;;0.30;0.30;;;22.90;99.90;;;;;;5156400;27;20204;-73
2022/06/15 07:49:54;;;;;;;0.28;0.28;;;23.00;99.90;;;;;;5144398;27;20216;-72
2022/06/15 07:52:26;;;;;;;0.20;0.20;;;23.00;99.90;;;;;;5135334;27;20225;-73
2022/06/15 07:54:52;;;;;;;0.20;0.20;;;22.60;99.90;;;;;;5135836;27;20183;-73
2022/06/15 07:57:18;;;;;;;0.47;0.47;;;22.30;99.90;;;;;;5135435;27;20199;-74
2022/06/15 07:59:44;;;;;;;0.22;0.22;;;22.50;99.90;;;;;;5117108;27;20194;-73
2022/06/15 08:02:10;;;;;;;0.40;0.35;;;22.50;99.90;;;;;;5116990;27;20205;-73
2022/06/15 08:04:36;;;;;;;0.40;0.40;;;22.80;99.90;;;;;;5135281;27;20198;-73
2022/06/15 08:07:04;;;;;;;0.30;0.30;;;23.00;99.90;;;;;;5116854;27;20256;-74
2022/06/15 08:09:30;;;;;;;0.15;0.15;;;23.40;99.90;;;;;;5135229;27;20251;-73
2022/06/15 08:14:50;;;;;;;0.40;0.40;;;24.20;99.90;;;;;;5135476;27;20238;-74
2022/06/15 08:17:25;;;;;;;0.50;0.50;;;24.60;99.90;;;;;;5135205;27;20243;-74
2022/06/15 08:19:59;;;;;;;0.20;0.20;;;24.80;99.90;;;;;;5130033;27;20201;-74
2022/06/15 08:22:26;;;;;;;0.20;0.20;;;24.70;99.90;;;;;;5155435;27;20181;-73
2022/06/15 08:24:53;;;;;;;0.20;0.20;;;24.80;99.90;;;;;;5156206;27;20706;-74
2022/06/15 08:27:21;;;;;;;0.10;0.10;;;25.00;99.90;;;;;;5136844;27;20194;-74
2022/06/15 08:29:48;;;;;;;0.20;0.20;;;25.20;99.90;;;;;;5137000;27;20233;-73
2022/06/15 08:32:15;;;;;;;2.47;0.68;;;25.20;99.90;;;;;;5155572;27;20716;-74
2022/06/15 08:34:41;;;;;;;0.17;0.17;;;25.30;99.90;;;;;;5155447;27;20186;-74
2022/06/15 08:37:12;;;;;;;0.20;0.20;;;25.70;99.90;;;;;;5155396;27;20210;-74
2022/06/15 08:39:39;;;;;;;1.02;0.50;;;25.90;99.90;;;;;;5155242;27;20736;-74
2022/06/15 08:42:38;;;;;;;0.17;0.17;;;25.70;99.90;;;;;;5155230;27;20194;-74
2022/06/15 08:45:11;;;;;;;8.48;1.13;;;25.10;99.90;;;;;;5154944;27;20201;-74
2022/06/15 08:48:02;;;;;;;0.50;0.50;;;25.30;99.90;;;;;;5155124;27;20191;-74
2022/06/15 08:50:41;;;;;;;0.40;0.40;;;25.60;99.90;;;;;;5135501;27;20207;-74
2022/06/15 08:53:13;;;;;;;0.20;0.20;;;26.10;99.90;;;;;;5134980;27;20201;-74
2022/06/15 08:56:02;;;;;;;0.20;0.20;;;25.90;99.90;;;;;;5116106;27;20205;-74
2022/06/15 08:58:44;;;;;;;0.80;0.22;;;25.60;99.90;;;;;;5134207;27;20199;-74
2022/06/15 09:01:29;;;;;;;0.10;0.10;;;25.80;99.90;;;;;;5115698;27;20281;-74
2022/06/15 09:04:02;;;;;;;0.10;0.10;;;26.20;99.90;;;;;;5134398;27;20187;-74
2022/06/15 09:06:46;;;;;;;0.22;0.20;;;26.30;99.00;;;;;;5134086;27;20194;-74
2022/06/15 09:09:26;;;;;;;0.10;0.10;;;26.10;99.10;;;;;;5115910;27;20194;-74
2022/06/15 09:15:08;;;;;;;0.20;0.20;;;25.60;97.50;;;;;;5136496;27;20687;-74
2022/06/15 09:17:34;;;;;;;0.20;0.20;;;25.70;98.70;;;;;;5154561;27;20188;-74
2022/06/15 09:20:06;;;;;;;1.00;0.43;;;25.90;97.80;;;;;;5154735;27;20194;-73
2022/06/15 09:22:41;;;;;;;0.10;0.10;;;26.20;98.10;;;;;;5154340;27;20190;-74
2022/06/15 09:25:23;;;;;;;0.38;0.38;;;26.30;98.20;;;;;;5136272;27;20341;-74
2022/06/15 09:27:57;;;;;;;0.15;0.15;;;26.30;99.90;;;;;;5136292;27;20190;-74
2022/06/15 09:30:31;;;;;;;0.15;0.15;;;26.60;99.90;;;;;;5154200;27;20202;-73
2022/06/15 09:33:03;;;;;;;0.15;0.15;;;26.70;99.90;;;;;;5154545;27;20235;-73
2022/06/15 09:35:43;;;;;;;0.20;0.20;;;27.10;99.90;;;;;;5135590;27;20217;-74
2022/06/15 09:38:13;;;;;;;0.52;0.50;;;27.50;99.90;;;;;;5154286;27;20189;-74
2022/06/15 09:40:46;;;;;;;0.25;0.25;;;27.40;99.90;;;;;;5154084;27;20189;-74
2022/06/15 09:43:35;;;;;;;1.25;0.50;;;27.70;99.90;;;;;;5154388;27;20186;-74
2022/06/15 09:46:19;;;;;;;0.20;0.20;;;27.80;99.80;;;;;;5153696;27;20210;-73
2022/06/15 09:49:04;;;;;;;0.10;0.10;;;27.50;99.90;;;;;;5149704;27;20675;-74
2022/06/15 09:51:57;;;;;;;0.10;0.10;;;27.30;99.90;;;;;;5133021;27;20587;-74
2022/06/15 09:54:40;;;;;;;0.25;0.25;;;27.90;99.60;;;;;;5132914;27;20199;-74
2022/06/15 09:57:06;;;;;;;0.35;0.25;;;26.90;99.90;;;;;;5132722;27;20195;-74
2022/06/15 09:59:33;;;;;;;0.65;0.40;;;26.70;99.90;;;;;;5132962;27;20199;-74
2022/06/15 10:02:02;;;;;;;0.10;0.10;;;27.00;99.90;;;;;;5133119;27;20194;-74
2022/06/15 10:04:31;;;;;;;0.35;0.20;;;27.70;99.60;;;;;;5114449;27;20258;-74
2022/06/15 10:07:02;;;;;;;0.65;0.63;;;28.00;99.90;;;;;;5133176;27;20209;-75
2022/06/15 10:09:31;;;;;;;0.75;0.55;;;27.90;98.40;;;;;;5114389;27;20229;-74
2022/06/15 10:14:50;;;;;;;0.43;0.43;;;27.90;97.40;;;;;;5154027;27;20204;-74
2022/06/15 10:17:38;;;;;;;0.20;0.20;;;28.10;97.10;;;;;;5153581;27;20690;-74
2022/06/15 10:20:04;;;;;;;0.40;0.40;;;27.80;98.00;;;;;;5153614;27;20194;-74
2022/06/15 10:22:36;;;;;;;0.13;0.13;;;28.50;95.80;;;;;;5134721;27;20198;-74
2022/06/15 10:25:04;;;;;;;0.20;0.20;;;27.80;96.20;;;;;;5134855;27;20201;-73
2022/06/15 10:27:32;;;;;;;0.35;0.35;;;27.90;96.00;;;;;;5153276;27;20192;-74
2022/06/15 10:30:18;;;;;;;0.85;0.60;;;28.10;95.90;;;;;;5134858;27;20213;-74
2022/06/15 10:33:03;;;;;;;0.10;0.10;;;26.50;96.30;;;;;;5152848;27;20680;-74
2022/06/15 10:35:34;;;;;;;0.10;0.10;;;25.90;98.70;;;;;;5134669;27;20560;-74
2022/06/15 10:38:03;;;;;;;0.47;0.45;;;25.70;99.80;;;;;;5152612;27;20194;-74
2022/06/15 10:40:36;;;;;;;0.63;0.63;;;25.40;99.90;;;;;;5134386;27;20197;-75
2022/06/15 10:43:06;;;;;;;0.50;0.25;;;25.20;99.90;;;;;;5153359;27;20541;-74
2022/06/15 10:45:42;;;;;;;0.30;0.30;;;25.70;99.90;;;;;;5153106;27;20215;-74
2022/06/15 10:48:26;;;;;;;0.98;0.30;;;26.30;99.60;;;;;;5153178;27;20254;-74
2022/06/15 10:51:05;;;;;;;0.25;0.20;;;26.20;98.80;;;;;;5132185;27;20267;-74
2022/06/15 10:53:51;;;;;;;0.38;0.30;;;26.50;99.00;;;;;;5132422;27;20208;-74
2022/06/15 11:02:41;;;;;;;0.47;0.30;;;28.10;96.30;;;;;;5132054;28;20206;-73
2022/06/15 11:05:09;;;;;;;0.20;0.20;;;28.90;94.70;;;;;;5132205;28;20186;-74
2022/06/15 11:08:03;;;;;;;0.30;0.30;;;29.00;93.50;;;;;;5136989;27;20197;-74
2022/06/15 11:10:34;;;;;;;0.20;0.20;;;28.00;94.70;;;;;;5138299;27;20205;-74
2022/06/15 11:13:29;;;;;;;0.10;0.10;;;27.30;94.90;;;;;;5157134;27;20202;-74
2022/06/15 11:19:05;;;;;;;0.15;0.15;;;25.00;98.00;;;;;;5136584;27;20653;-75
2022/06/15 11:21:41;;;;;;;0.20;0.20;;;24.70;99.20;;;;;;5135560;27;20225;-74
2022/06/15 11:24:35;;;;;;;0.20;0.20;;;24.90;99.90;;;;;;5136209;27;20198;-74
2022/06/15 11:27:24;;;;;;;0.20;0.20;;;25.50;99.90;;;;;;5136344;27;20190;-74
2022/06/15 11:29:55;;;;;;;0.32;0.32;;;25.50;99.20;;;;;;5136175;27;20696;-74
2022/06/15 11:32:54;;;;;;;0.30;0.30;;;25.60;99.30;;;;;;5135951;27;20194;-73
2022/06/15 11:35:41;;;;;;;0.32;0.32;;;25.70;99.20;;;;;;5135871;27;20653;-74
2022/06/15 11:38:42;;;;;;;0.17;0.17;;;25.20;99.80;;;;;;5135906;27;20191;-75
2022/06/15 11:41:28;;;;;;;0.28;0.28;;;24.50;99.90;;;;;;5135946;27;20201;-73
2022/06/15 11:43:57;;;;;;;0.13;0.13;;;24.20;99.90;;;;;;5136011;27;20186;-74
2022/06/15 11:46:50;;;;;;;0.30;0.28;;;23.80;99.90;;;;;;5135640;27;20220;-74
2022/06/15 11:49:39;;;;;;;0.55;0.55;;;23.70;99.90;;;;;;5135438;27;20194;-73
2022/06/15 11:52:07;;;;;;;0.10;0.10;;;23.60;99.90;;;;;;5116998;27;20223;-74
2022/06/15 11:54:58;;;;;;;0.30;0.30;;;23.50;99.90;;;;;;5117125;27;20199;-74
2022/06/15 11:58:01;;;;;;;0.22;0.22;;;23.40;99.80;;;;;;5149202;27;20274;-74
2022/06/15 12:00:54;;;;;;;0.20;0.20;;;23.20;99.90;;;;;;5137414;27;20254;-74
2022/06/15 12:03:22;;;;;;;0.68;0.65;;;23.30;99.90;;;;;;5137391;27;20210;-74
2022/06/15 12:05:51;;;;;;;0.73;0.45;;;23.40;99.90;;;;;;5156258;27;20193;-74
2022/06/15 12:08:24;;;;;;;1.10;0.40;;;23.80;99.90;;;;;;5145866;27;20635;-74
2022/06/15 12:10:58;;;;;;;6.28;1.65;;;24.30;99.90;;;;;;5135374;27;20198;-74
2022/06/15 12:13:50;;;;;;;0.20;0.20;;;24.60;99.90;;;;;;5135063;27;20691;-74
2022/06/15 12:16:29;;;;;;;0.10;0.10;;;25.10;99.90;;;;;;5127899;27;20367;-74
2022/06/15 12:19:09;;;;;;;0.10;0.10;;;25.80;99.90;;;;;;5156032;27;20586;-74
2022/06/15 12:21:45;;;;;;;0.77;0.50;;;25.80;99.90;;;;;;5154943;27;20194;-75
2022/06/15 12:24:34;;;;;;;0.20;0.20;;;25.50;98.30;;;;;;5155823;27;20224;-74
2022/06/15 12:27:16;;;;;;;0.20;0.20;;;25.60;99.90;;;;;;5155813;27;20679;-74
2022/06/15 12:30:14;;;;;;;8.02;0.47;;;26.20;98.40;;;;;;5155614;27;20193;-75
2022/06/15 12:32:59;;;;;;;0.43;0.28;;;25.90;98.00;;;;;;5136973;27;20190;-74
2022/06/15 12:35:39;;;;;;;0.20;0.20;;;25.50;98.90;;;;;;5155511;27;20679;-74
2022/06/15 12:38:09;;;;;;;0.20;0.20;;;24.70;99.00;;;;;;5137152;27;20712;-74
2022/06/15 12:40:40;;;;;;;0.38;0.38;;;24.60;99.90;;;;;;5155298;27;20785;-74
2022/06/15 12:43:16;;;;;;;0.75;0.63;;;24.70;99.90;;;;;;5155688;27;20684;-74
2022/06/15 12:45:50;;;;;;;0.70;0.70;;;24.40;99.90;;;;;;5137815;27;20194;-75
2022/06/15 12:48:48;;;;;;;0.17;0.17;;;24.60;99.90;;;;;;5155853;27;20181;-74
2022/06/15 12:51:18;;;;;;;0.25;0.25;;;24.70;99.90;;;;;;5134553;27;20218;-74
2022/06/15 12:53:51;;;;;;;0.25;0.20;;;25.00;99.90;;;;;;5149160;27;20705;-74
2022/06/15 12:56:58;;;;;;;1.52;0.47;;;25.60;99.90;;;;;;5155615;27;20209;-73
2022/06/15 12:59:32;;;;;;;0.20;0.20;;;26.10;97.90;;;;;;5155048;27;20214;-74
2022/06/15 13:02:23;;;;;;;0.30;0.30;;;26.10;98.00;;;;;;5135076;27;20703;-73
2022/06/15 13:05:15;;;;;;;0.22;0.22;;;25.70;94.80;;;;;;5146992;27;20229;-73
2022/06/15 13:07:42;;;;;;;0.20;0.20;;;25.70;96.50;;;;;;5155216;27;20239;-72
2022/06/15 13:10:08;;;;;;;0.85;0.30;;;25.50;93.20;;;;;;5155558;27;20573;-74
2022/06/15 13:12:56;;;;;;;0.50;0.45;;;25.30;96.70;;;;;;5155433;27;20194;-74
2022/06/15 13:15:27;;;;;;;0.75;0.30;;;25.50;97.30;;;;;;5132928;27;20709;-73
2022/06/15 13:18:09;;;;;;;0.10;0.10;;;25.60;97.60;;;;;;5134480;27;20186;-73
2022/06/15 13:20:48;;;;;;;0.20;0.20;;;26.00;96.90;;;;;;5134028;27;20183;-74
2022/06/15 13:23:22;;;;;;;4.30;0.75;;;26.30;97.70;;;;;;5134495;27;20190;-74
2022/06/15 13:26:16;;;;;;;0.20;0.20;;;26.50;96.80;;;;;;5116119;27;20216;-73
2022/06/15 13:29:10;;;;;;;0.10;0.10;;;26.70;94.70;;;;;;5134094;27;20187;-74
2022/06/15 13:31:53;;;;;;;0.43;0.43;;;27.00;93.10;;;;;;5132754;27;20314;-74
2022/06/15 13:34:32;;;;;;;0.10;0.10;;;27.00;93.00;;;;;;5133915;27;20221;-73
2022/06/15 13:37:16;;;;;;;0.10;0.10;;;26.70;92.20;;;;;;5133964;27;20235;-73
2022/06/15 13:39:53;;;;;;;0.10;0.10;;;26.40;92.40;;;;;;5115683;27;20194;-74
2022/06/15 13:42:38;;;;;;;0.30;0.30;;;26.00;92.00;;;;;;5133628;27;20214;-73
2022/06/15 13:45:22;;;;;;;0.20;0.20;;;25.60;91.10;;;;;;5133944;27;20681;-74